createdAt,value
2024-03-04T00:00:00.903Z,10.02
2024-03-04T00:02:29.276Z,9.97
2024-03-04T00:04:57.130Z,9.96
2024-03-04T00:07:27.551Z,9.94
2024-03-04T00:09:55.413Z,9.90
2024-03-04T00:12:23.876Z,9.88
2024-03-04T00:14:53.054Z,9.83
2024-03-04T00:17:20.901Z,9.80
2024-03-04T00:19:48.714Z,9.77
2024-03-04T00:22:16.579Z,9.74
2024-03-04T00:24:45.961Z,9.71
2024-03-04T00:27:13.851Z,9.69
2024-03-04T00:29:42.057Z,9.68
2024-03-04T00:32:09.971Z,9.65
2024-03-04T00:34:38.155Z,9.66
2024-03-04T00:37:06.516Z,9.64
2024-03-04T00:39:34.320Z,9.63
2024-03-04T00:42:05.133Z,9.61
2024-03-04T00:44:35.718Z,9.58
2024-03-04T00:47:04.342Z,9.54
2024-03-04T00:49:32.255Z,9.50
2024-03-04T00:52:00.230Z,9.45
2024-03-04T00:54:28.082Z,9.42
2024-03-04T00:56:57.013Z,9.38
2024-03-04T00:59:24.964Z,9.34
2024-03-04T01:01:52.770Z,9.30
2024-03-04T01:04:20.709Z,9.27
2024-03-04T01:06:53.458Z,9.23
2024-03-04T01:09:21.725Z,9.22
2024-03-04T01:11:51.555Z,9.19
2024-03-04T01:14:21.616Z,9.18
2024-03-04T01:16:53.719Z,9.16
2024-03-04T01:19:21.739Z,9.13
2024-03-04T01:21:49.613Z,9.12
2024-03-04T01:24:19.121Z,9.10
2024-03-04T01:26:47.053Z,9.09
2024-03-04T01:29:14.933Z,9.08
2024-03-04T01:31:44.058Z,9.08
2024-03-04T01:34:14.919Z,9.07
2024-03-04T01:36:42.718Z,9.07
2024-03-04T01:39:10.628Z,9.09
2024-03-04T01:41:38.709Z,9.09
2024-03-04T01:44:06.502Z,9.07
2024-03-04T01:46:35.169Z,9.04
2024-03-04T01:49:03.171Z,9.01
2024-03-04T01:51:31.703Z,8.98
2024-03-04T01:53:59.536Z,8.95
2024-03-04T01:56:28.059Z,8.92
2024-03-04T01:58:56.925Z,8.90
2024-03-04T02:01:27.355Z,8.87
2024-03-04T02:03:55.755Z,8.86
2024-03-04T02:06:26.703Z,8.86
2024-03-04T02:08:54.529Z,8.86
2024-03-04T02:11:22.374Z,8.83
2024-03-04T02:13:50.316Z,8.83
2024-03-04T02:16:23.064Z,8.81
2024-03-04T02:18:54.068Z,8.79
2024-03-04T02:21:23.016Z,8.76
2024-03-04T02:23:51.132Z,8.76
2024-03-04T02:26:19.134Z,8.75
2024-03-04T02:28:46.967Z,8.73
2024-03-04T02:31:15.125Z,8.72
2024-03-04T02:33:45.921Z,8.71
2024-03-04T02:36:13.943Z,8.70
2024-03-04T02:38:42.477Z,8.70
2024-03-04T02:41:10.614Z,8.70
2024-03-04T02:43:38.580Z,8.69
2024-03-04T02:46:06.667Z,8.69
2024-03-04T02:48:34.736Z,8.69
2024-03-04T02:51:02.487Z,8.69
2024-03-04T02:53:30.311Z,8.68
2024-03-04T02:55:58.200Z,8.67
2024-03-04T02:58:26.253Z,8.66
2024-03-04T03:00:54.293Z,8.65
2024-03-04T03:03:24.116Z,8.64
2024-03-04T03:05:52.203Z,8.62
2024-03-04T03:08:20.132Z,8.59
2024-03-04T03:10:48.403Z,8.56
2024-03-04T03:13:16.439Z,8.55
2024-03-04T03:15:45.851Z,8.54
2024-03-04T03:18:15.176Z,8.53
2024-03-04T03:20:43.155Z,8.52
2024-03-04T03:23:13.770Z,8.51
2024-03-04T03:25:41.647Z,8.51
2024-03-04T03:28:09.632Z,8.51
2024-03-04T03:30:37.515Z,8.50
2024-03-04T03:33:05.498Z,8.49
2024-03-04T03:35:33.685Z,8.49
2024-03-04T03:38:01.547Z,8.49
2024-03-04T03:40:32.800Z,8.48
2024-03-04T03:43:00.854Z,8.47
2024-03-04T03:45:28.987Z,8.46
2024-03-04T03:47:56.912Z,8.47
2024-03-04T03:50:24.823Z,8.47
2024-03-04T03:52:52.727Z,8.46
2024-03-04T03:55:20.670Z,8.45
2024-03-04T03:57:55.663Z,8.43
2024-03-04T04:00:29.034Z,8.43
2024-03-04T04:02:58.930Z,8.43
2024-03-04T04:05:28.703Z,8.42
2024-03-04T04:07:56.934Z,8.42
2024-03-04T04:10:27.433Z,8.44
2024-03-04T04:13:00.363Z,8.41
2024-03-04T04:15:29.969Z,8.40
2024-03-04T04:17:58.472Z,8.39
2024-03-04T04:20:28.583Z,8.38
2024-03-04T04:22:56.327Z,8.37
2024-03-04T04:25:24.188Z,8.36
2024-03-04T04:27:52.236Z,8.34
2024-03-04T04:30:23.919Z,8.32
2024-03-04T04:32:51.778Z,8.29
2024-03-04T04:35:21.583Z,8.29
2024-03-04T04:37:49.388Z,8.26
2024-03-04T04:40:20.659Z,8.25
2024-03-04T04:42:49.245Z,8.22
2024-03-04T04:45:16.992Z,8.19
2024-03-04T04:47:45.060Z,8.16
2024-03-04T04:50:13.554Z,8.14
2024-03-04T04:52:41.471Z,8.12
2024-03-04T04:55:09.547Z,8.10
2024-03-04T04:57:37.373Z,8.07
2024-03-04T05:00:05.731Z,8.05
2024-03-04T05:02:33.542Z,8.05
2024-03-04T05:05:01.588Z,8.05
2024-03-04T05:07:29.898Z,8.03
2024-03-04T05:09:59.320Z,8.00
2024-03-04T05:12:27.583Z,8.00
2024-03-04T05:14:56.082Z,7.98
2024-03-04T05:17:24.182Z,7.99
2024-03-04T05:19:52.342Z,7.98
2024-03-04T05:22:20.262Z,7.96
2024-03-04T05:24:48.156Z,7.96
2024-03-04T05:27:15.979Z,7.97
2024-03-04T05:29:43.787Z,7.95
2024-03-04T05:32:12.180Z,7.95
2024-03-04T05:34:42.095Z,7.94
2024-03-04T05:37:13.002Z,7.94
2024-03-04T05:39:41.001Z,7.92
2024-03-04T05:42:09.820Z,7.92
2024-03-04T05:44:37.578Z,7.90
2024-03-04T05:47:05.450Z,7.90
2024-03-04T05:49:33.545Z,7.88
2024-03-04T05:52:01.494Z,7.87
2024-03-04T05:54:29.346Z,7.86
2024-03-04T05:56:57.305Z,7.87
2024-03-04T05:59:25.160Z,7.85
2024-03-04T06:01:53.479Z,7.84
2024-03-04T06:04:21.463Z,7.83
2024-03-04T06:06:49.294Z,7.83
2024-03-04T06:09:18.100Z,7.82
2024-03-04T06:11:47.604Z,7.81
2024-03-04T06:14:16.031Z,7.82
2024-03-04T06:16:44.017Z,7.84
2024-03-04T06:19:12.222Z,7.84
2024-03-04T06:21:40.124Z,7.83
2024-03-04T06:24:08.030Z,7.81
2024-03-04T06:26:36.020Z,7.81
2024-03-04T06:29:03.805Z,7.80
2024-03-04T06:31:31.656Z,7.81
2024-03-04T06:34:08.404Z,7.81
2024-03-04T06:36:43.389Z,7.81
2024-03-04T06:39:11.272Z,7.80
2024-03-04T06:41:39.120Z,7.80
2024-03-04T06:44:08.880Z,7.81
2024-03-04T06:46:36.913Z,7.80
2024-03-04T06:49:05.068Z,7.78
2024-03-04T06:51:36.723Z,7.79
2024-03-04T06:54:11.422Z,7.80
2024-03-04T06:56:39.318Z,7.81
2024-03-04T06:59:07.296Z,7.81
2024-03-04T07:01:35.523Z,7.83
2024-03-04T07:04:03.599Z,7.85
2024-03-04T07:06:31.669Z,7.86
2024-03-04T07:08:59.649Z,7.88
2024-03-04T07:11:27.680Z,7.90
2024-03-04T07:13:55.658Z,7.92
2024-03-04T07:16:23.560Z,7.94
2024-03-04T07:18:53.902Z,7.96
2024-03-04T07:21:21.952Z,7.98
2024-03-04T07:23:49.926Z,8.01
2024-03-04T07:26:21.287Z,8.04
2024-03-04T07:28:49.804Z,8.07
2024-03-04T07:31:18.410Z,8.10
2024-03-04T07:33:47.857Z,8.13
2024-03-04T07:36:17.240Z,8.17
2024-03-04T07:38:45.723Z,8.19
2024-03-04T07:41:13.762Z,8.24
2024-03-04T07:43:42.472Z,8.27
2024-03-04T07:46:10.505Z,8.30
2024-03-04T07:48:38.382Z,8.32
2024-03-04T07:51:07.129Z,8.36
2024-03-04T07:53:35.032Z,8.39
2024-03-04T07:56:03.102Z,8.42
2024-03-04T07:58:31.384Z,8.44
2024-03-04T08:01:01.261Z,8.49
2024-03-04T08:03:29.454Z,8.53
2024-03-04T08:05:57.643Z,8.56
2024-03-04T08:08:25.525Z,8.60
2024-03-04T08:10:54.471Z,8.64
2024-03-04T08:13:22.470Z,8.69
2024-03-04T08:15:50.698Z,8.72
2024-03-04T08:18:18.607Z,8.76
2024-03-04T08:20:46.653Z,8.80
2024-03-04T08:23:14.576Z,8.86
2024-03-04T08:25:42.521Z,8.91
2024-03-04T08:28:19.832Z,8.97
2024-03-04T08:30:52.489Z,9.02
2024-03-04T08:33:20.848Z,9.06
2024-03-04T08:35:48.794Z,9.12
2024-03-04T08:38:16.751Z,9.18
2024-03-04T08:40:44.832Z,9.24
2024-03-04T08:43:15.054Z,9.30
2024-03-04T08:45:42.977Z,9.37
2024-03-04T08:48:10.944Z,9.43
2024-03-04T08:50:38.983Z,9.50
2024-03-04T08:53:06.969Z,9.57
2024-03-04T08:55:35.080Z,9.65
2024-03-04T08:58:03.639Z,9.74
2024-03-04T09:00:31.931Z,9.87
2024-03-04T09:02:59.853Z,10.01
2024-03-04T09:05:28.221Z,10.14
2024-03-04T09:07:56.085Z,10.26
2024-03-04T09:10:24.240Z,10.37
2024-03-04T09:12:52.457Z,10.50
2024-03-04T09:15:21.693Z,10.60
2024-03-04T09:17:49.907Z,10.69
2024-03-04T09:20:18.997Z,10.77
2024-03-04T09:22:46.977Z,10.85
2024-03-04T09:28:00.200Z,11.00
2024-03-04T09:30:28.497Z,11.08
2024-03-04T09:32:56.499Z,11.19
2024-03-04T09:35:24.404Z,11.30
2024-03-04T09:37:52.579Z,11.37
2024-03-04T09:40:20.739Z,11.45
2024-03-04T09:42:49.445Z,11.51
2024-03-04T09:45:18.739Z,11.62
2024-03-04T09:47:49.734Z,11.70
2024-03-04T09:50:18.422Z,11.79
2024-03-04T09:52:46.821Z,11.86
2024-03-04T09:55:15.129Z,11.96
2024-03-04T09:57:43.939Z,11.99
2024-03-04T10:00:15.797Z,12.01
2024-03-04T10:02:44.654Z,12.06
2024-03-04T10:05:14.393Z,12.14
2024-03-04T10:07:42.506Z,12.22
2024-03-04T10:10:14.606Z,12.28
2024-03-04T10:12:42.918Z,12.30
2024-03-04T10:15:12.122Z,12.33
2024-03-04T10:17:40.877Z,12.38
2024-03-04T10:20:13.204Z,12.43
2024-03-04T10:22:41.515Z,12.47
2024-03-04T10:25:14.743Z,12.51
2024-03-04T10:27:44.983Z,12.58
2024-03-04T10:30:14.022Z,12.64
2024-03-04T10:33:07.235Z,12.71
2024-03-04T10:35:36.277Z,12.77
2024-03-04T10:38:05.013Z,12.80
2024-03-04T10:40:38.305Z,12.83
2024-03-04T10:43:08.029Z,12.85
2024-03-04T10:45:36.993Z,12.90
2024-03-04T10:48:05.778Z,12.92
2024-03-04T10:50:33.790Z,12.95
2024-03-04T10:53:03.798Z,12.99
2024-03-04T10:55:33.095Z,13.00
2024-03-04T10:58:03.698Z,13.02
2024-03-04T11:00:34.642Z,13.05
2024-03-04T11:03:03.422Z,13.08
2024-03-04T11:05:34.952Z,13.12
2024-03-04T11:08:22.064Z,13.15
2024-03-04T11:11:12.028Z,13.19
2024-03-04T11:13:58.816Z,13.24
2024-03-04T11:16:41.832Z,13.25
2024-03-04T11:19:23.779Z,13.29
2024-03-04T11:21:52.113Z,13.33
2024-03-04T11:24:20.922Z,13.35
2024-03-04T11:26:50.140Z,13.37
2024-03-04T11:29:19.794Z,13.40
2024-03-04T11:31:57.917Z,13.41
2024-03-04T11:34:26.277Z,13.43
2024-03-04T11:36:57.337Z,13.44
2024-03-04T11:39:26.733Z,13.45
2024-03-04T11:41:54.952Z,13.46
2024-03-04T11:44:30.409Z,13.48
2024-03-04T11:46:58.991Z,13.50
2024-03-04T11:49:27.748Z,13.53
2024-03-04T11:52:15.718Z,13.54
2024-03-04T11:54:44.762Z,13.56
2024-03-04T11:57:12.796Z,13.57
2024-03-04T11:59:42.228Z,13.57
2024-03-04T12:02:11.359Z,13.57
2024-03-04T12:04:41.852Z,13.57
2024-03-04T12:07:10.088Z,13.56
2024-03-04T12:09:50.987Z,13.53
2024-03-04T12:12:26.136Z,13.51
2024-03-04T12:14:54.112Z,13.48
2024-03-04T12:17:22.073Z,13.43
2024-03-04T12:19:57.081Z,13.38
2024-03-04T12:22:32.043Z,13.33
2024-03-04T12:25:08.057Z,13.31
2024-03-04T12:27:37.127Z,13.28
2024-03-04T12:30:24.923Z,13.25
2024-03-04T12:32:53.988Z,13.24
2024-03-04T12:35:30.202Z,13.23
2024-03-04T12:37:59.966Z,13.22
2024-03-04T12:40:28.234Z,13.21
2024-03-04T12:42:59.748Z,13.20
2024-03-04T12:45:28.590Z,13.19
2024-03-04T12:47:58.482Z,13.17
2024-03-04T12:50:28.287Z,13.16
2024-03-04T12:52:57.656Z,13.12
2024-03-04T12:55:26.120Z,13.08
2024-03-04T12:57:57.416Z,13.07
2024-03-04T13:00:26.347Z,13.05
2024-03-04T13:02:54.459Z,13.03
2024-03-04T13:05:22.431Z,13.01
2024-03-04T13:07:50.396Z,12.99
2024-03-04T13:10:18.503Z,12.97
2024-03-04T13:12:49.435Z,12.93
2024-03-04T13:15:17.857Z,12.89
2024-03-04T13:17:46.295Z,12.86
2024-03-04T13:20:15.175Z,12.82
2024-03-04T13:22:49.891Z,12.78
2024-03-04T13:25:19.825Z,12.74
2024-03-04T13:27:48.335Z,12.67
2024-03-04T13:30:16.458Z,12.63
2024-03-04T13:32:46.215Z,12.59
2024-03-04T13:35:14.575Z,12.55
2024-03-04T13:37:42.636Z,12.52
2024-03-04T13:40:12.331Z,12.46
2024-03-04T13:42:42.320Z,12.43
2024-03-04T13:45:10.873Z,12.38
2024-03-04T13:47:39.474Z,12.33
2024-03-04T13:50:07.931Z,12.28
2024-03-04T13:52:36.118Z,12.25
2024-03-04T13:55:04.323Z,12.22
2024-03-04T13:57:33.398Z,12.17
2024-03-04T14:00:01.436Z,12.11
2024-03-04T14:02:29.495Z,12.04
2024-03-04T14:04:57.466Z,12.01
2024-03-04T14:07:26.072Z,11.99
2024-03-04T14:09:56.546Z,11.96
2024-03-04T14:12:24.653Z,11.93
2024-03-04T14:14:52.559Z,11.89
2024-03-04T14:17:20.451Z,11.85
2024-03-04T14:19:48.598Z,11.82
2024-03-04T14:22:16.562Z,11.79
2024-03-04T14:24:44.560Z,11.76
2024-03-04T14:27:12.496Z,11.72
2024-03-04T14:29:44.040Z,11.69
2024-03-04T14:32:12.024Z,11.65
2024-03-04T14:34:40.204Z,11.61
2024-03-04T14:37:08.156Z,11.57
2024-03-04T14:39:36.099Z,11.53
2024-03-04T14:42:05.060Z,11.48
2024-03-04T14:44:32.970Z,11.44
2024-03-04T14:47:00.882Z,11.39
2024-03-04T14:49:29.460Z,11.37
2024-03-04T14:51:57.364Z,11.35
2024-03-04T14:54:25.250Z,11.32
2024-03-04T14:56:53.273Z,11.30
2024-03-04T14:59:21.162Z,11.28
2024-03-04T15:01:50.305Z,11.26
2024-03-04T15:04:18.563Z,11.23
2024-03-04T15:06:46.436Z,11.22
2024-03-04T15:09:14.491Z,11.19
2024-03-04T15:11:45.768Z,11.16
2024-03-04T15:14:13.777Z,11.13
2024-03-04T15:16:48.684Z,11.10
2024-03-04T15:19:16.706Z,11.08
2024-03-04T15:21:44.635Z,11.06
2024-03-04T15:24:12.560Z,11.04
2024-03-04T15:26:55.576Z,11.03
2024-03-04T15:29:23.589Z,11.02
2024-03-04T15:31:51.483Z,10.98
2024-03-04T15:34:19.323Z,10.96
2024-03-04T15:36:50.736Z,10.91
2024-03-04T15:39:19.318Z,10.89
2024-03-04T15:41:47.168Z,10.86
2024-03-04T15:44:15.238Z,10.83
2024-03-04T15:46:46.727Z,10.79
2024-03-04T15:49:15.781Z,10.76
2024-03-04T15:51:47.509Z,10.72
2024-03-04T15:54:15.408Z,10.70
2024-03-04T15:56:43.668Z,10.66
2024-03-04T15:59:11.924Z,10.65
2024-03-04T16:01:40.130Z,10.62
2024-03-04T16:04:08.363Z,10.61
2024-03-04T16:06:36.560Z,10.58
2024-03-04T16:09:05.080Z,10.54
2024-03-04T16:11:33.029Z,10.55
2024-03-04T16:14:01.032Z,10.52
2024-03-04T16:16:29.649Z,10.49
2024-03-04T16:18:57.642Z,10.45
2024-03-04T16:21:25.843Z,10.43
2024-03-04T16:23:54.363Z,10.40
2024-03-04T16:26:22.468Z,10.38
2024-03-04T16:28:50.756Z,10.35
2024-03-04T16:31:18.768Z,10.32
2024-03-04T16:33:46.671Z,10.29
2024-03-04T16:36:15.494Z,10.27
2024-03-04T16:38:43.935Z,10.25
2024-03-04T16:41:22.692Z,10.22
2024-03-04T16:43:50.938Z,10.19
2024-03-04T16:46:18.932Z,10.15
2024-03-04T16:48:48.671Z,10.15
2024-03-04T16:51:16.970Z,10.11
2024-03-04T16:53:45.903Z,10.09
2024-03-04T16:56:13.901Z,10.07
2024-03-04T16:58:41.952Z,10.04
2024-03-04T17:01:11.562Z,10.03
2024-03-04T17:03:41.411Z,10.00
2024-03-04T17:06:09.428Z,9.97
2024-03-04T17:08:37.316Z,9.96
2024-03-04T17:11:06.451Z,9.94
2024-03-04T17:13:34.756Z,9.92
2024-03-04T17:16:02.710Z,9.91
2024-03-04T17:18:30.690Z,9.86
2024-03-04T17:20:58.673Z,9.86
2024-03-04T17:23:26.738Z,9.85
2024-03-04T17:25:54.720Z,9.83
2024-03-04T17:28:22.860Z,9.82
2024-03-04T17:30:52.704Z,9.81
2024-03-04T17:33:21.362Z,9.80
2024-03-04T17:35:49.497Z,9.77
2024-03-04T17:38:18.671Z,9.77
2024-03-04T17:40:46.908Z,9.76
2024-03-04T17:43:15.582Z,9.74
2024-03-04T17:45:45.949Z,9.72
2024-03-04T17:48:14.792Z,9.71
2024-03-04T17:50:43.631Z,9.70
2024-03-04T17:53:11.556Z,9.66
2024-03-04T17:55:42.691Z,9.64
2024-03-04T17:58:12.664Z,9.61
2024-03-04T18:00:40.709Z,9.59
2024-03-04T18:03:08.768Z,9.58
2024-03-04T18:05:36.906Z,9.57
2024-03-04T18:08:05.126Z,9.56
2024-03-04T18:10:36.512Z,9.55
2024-03-04T18:13:07.029Z,9.53
2024-03-04T18:15:35.436Z,9.52
2024-03-04T18:18:04.129Z,9.50
2024-03-04T18:20:32.086Z,9.51
2024-03-04T18:23:00.006Z,9.50
2024-03-04T18:25:28.174Z,9.50
2024-03-04T18:27:56.036Z,9.51
2024-03-04T18:30:23.957Z,9.51
2024-03-04T18:32:51.963Z,9.50
2024-03-04T18:35:21.126Z,9.49
2024-03-04T18:37:49.270Z,9.48
2024-03-04T18:40:17.212Z,9.45
2024-03-04T18:42:47.553Z,9.45
2024-03-04T18:45:15.560Z,9.45
2024-03-04T18:47:43.459Z,9.45
2024-03-04T18:50:11.484Z,9.45
2024-03-04T18:52:40.009Z,9.46
2024-03-04T18:55:08.081Z,9.44
2024-03-04T18:57:36.247Z,9.43
2024-03-04T19:00:06.377Z,9.42
2024-03-04T19:02:34.739Z,9.42
2024-03-04T19:05:02.784Z,9.41
2024-03-04T19:07:33.556Z,9.39
2024-03-04T19:10:05.298Z,9.39
2024-03-04T19:12:34.728Z,9.39
2024-03-04T19:15:06.438Z,9.39
2024-03-04T19:17:34.512Z,9.37
2024-03-04T19:20:05.475Z,9.38
2024-03-04T19:22:33.569Z,9.37
2024-03-04T19:25:02.618Z,9.37
2024-03-04T19:27:30.544Z,9.36
2024-03-04T19:29:58.520Z,9.35
2024-03-04T19:32:26.487Z,9.35
2024-03-04T19:34:54.458Z,9.34
2024-03-04T19:37:22.365Z,9.33
2024-03-04T19:39:50.415Z,9.31
2024-03-04T19:42:22.230Z,9.31
2024-03-04T19:44:50.305Z,9.30
2024-03-04T19:47:18.238Z,9.29
2024-03-04T19:49:46.148Z,9.28
2024-03-04T19:52:14.405Z,9.27
2024-03-04T19:54:42.340Z,9.27
2024-03-04T19:57:10.217Z,9.27
2024-03-04T19:59:39.300Z,9.25
2024-03-04T20:02:07.392Z,9.24
2024-03-04T20:04:35.364Z,9.23
2024-03-04T20:07:06.459Z,9.22
2024-03-04T20:09:34.733Z,9.21
2024-03-04T20:12:02.734Z,9.22
2024-03-04T20:14:30.957Z,9.21
2024-03-04T20:16:59.309Z,9.21
2024-03-04T20:19:28.168Z,9.20
2024-03-04T20:21:56.486Z,9.20
2024-03-04T20:24:24.394Z,9.19
2024-03-04T20:26:52.215Z,9.18
2024-03-04T20:29:21.606Z,9.16
2024-03-04T20:31:50.139Z,9.15
2024-03-04T20:34:18.099Z,9.14
2024-03-04T20:36:45.925Z,9.11
2024-03-04T20:39:14.612Z,9.11
2024-03-04T20:41:42.530Z,9.10
2024-03-04T20:44:10.470Z,9.08
2024-03-04T20:46:38.374Z,9.08
2024-03-04T20:49:06.325Z,9.07
2024-03-04T20:51:36.356Z,9.07
2024-03-04T20:54:04.679Z,9.06
2024-03-04T20:56:33.390Z,9.06
2024-03-04T20:59:01.531Z,9.06
2024-03-04T21:01:29.629Z,9.06
2024-03-04T21:03:57.841Z,9.04
2024-03-04T21:06:25.779Z,9.03
2024-03-04T21:08:53.811Z,9.01
2024-03-04T21:11:21.846Z,9.00
2024-03-04T21:13:51.522Z,8.99
2024-03-04T21:16:19.655Z,8.97
2024-03-04T21:18:47.489Z,8.95
2024-03-04T21:21:15.417Z,8.94
2024-03-04T21:23:43.783Z,8.91
2024-03-04T21:26:11.720Z,8.89
2024-03-04T21:28:43.898Z,8.87
2024-03-04T21:31:11.998Z,8.85
2024-03-04T21:33:39.888Z,8.83
2024-03-04T21:36:07.907Z,8.82
2024-03-04T21:38:36.081Z,8.79
2024-03-04T21:41:04.627Z,8.78
2024-03-04T21:43:32.582Z,8.76
2024-03-04T21:46:00.712Z,8.75
2024-03-04T21:48:28.720Z,8.74
2024-03-04T21:50:56.738Z,8.71
2024-03-04T21:53:24.964Z,8.69
2024-03-04T21:55:54.203Z,8.67
2024-03-04T21:58:22.452Z,8.66
2024-03-04T22:00:52.228Z,8.64
2024-03-04T22:03:20.268Z,8.63
2024-03-04T22:05:49.796Z,8.60
2024-03-04T22:08:19.894Z,8.57
2024-03-04T22:10:49.123Z,8.55
2024-03-04T22:13:18.872Z,8.54
2024-03-04T22:15:47.040Z,8.51
2024-03-04T22:18:14.979Z,8.50
2024-03-04T22:20:43.032Z,8.50
2024-03-04T22:23:10.960Z,8.49
2024-03-04T22:25:38.849Z,8.48
2024-03-04T22:28:07.465Z,8.47
2024-03-04T22:30:36.665Z,8.47
2024-03-04T22:33:05.093Z,8.45
2024-03-04T22:35:33.069Z,8.44
2024-03-04T22:38:01.114Z,8.43
2024-03-04T22:40:29.118Z,8.42
2024-03-04T22:42:58.239Z,8.41
2024-03-04T22:45:26.469Z,8.39
2024-03-04T22:47:55.465Z,8.38
2024-03-04T22:50:23.421Z,8.38
2024-03-04T22:52:52.571Z,8.36
2024-03-04T22:55:20.575Z,8.34
2024-03-04T22:57:48.556Z,8.32
2024-03-04T23:00:19.152Z,8.31
2024-03-04T23:02:50.277Z,8.28
2024-03-04T23:05:18.456Z,8.26
2024-03-04T23:07:48.718Z,8.27
2024-03-04T23:10:17.310Z,8.26
2024-03-04T23:12:45.233Z,8.23
2024-03-04T23:15:13.664Z,8.23
2024-03-04T23:17:41.682Z,8.20
2024-03-04T23:20:10.257Z,8.19
2024-03-04T23:22:38.360Z,8.18
2024-03-04T23:25:06.538Z,8.17
2024-03-04T23:27:34.405Z,8.14
2024-03-04T23:30:02.833Z,8.11
2024-03-04T23:32:30.893Z,8.10
2024-03-04T23:34:58.875Z,8.09
2024-03-04T23:37:26.754Z,8.06
2024-03-04T23:39:55.840Z,8.07
2024-03-04T23:42:23.687Z,8.04
2024-03-04T23:44:51.644Z,8.03
2024-03-04T23:47:22.295Z,8.02
2024-03-04T23:49:51.954Z,8.02
2024-03-04T23:52:21.428Z,8.01
2024-03-04T23:54:49.407Z,8.00
2024-03-04T23:57:17.811Z,7.99
2024-03-04T23:59:45.739Z,7.99
